sensor_id;sensor_type;location;lat;lon;timestamp;temperature;humidity
64652;HTU21D;51062;45.120;37.660;2024-02-15T00:01:58;9.09;73.47
64652;HTU21D;51062;45.120;37.660;2024-02-15T00:04:24;9.09;73.48
64652;HTU21D;51062;45.120;37.660;2024-02-15T00:06:50;9.10;73.45
64652;HTU21D;51062;45.120;37.660;2024-02-15T00:09:16;9.11;73.61
64652;HTU21D;51062;45.120;37.660;2024-02-15T00:11:42;9.12;73.62
64652;HTU21D;51062;45.120;37.660;2024-02-15T00:14:08;9.11;73.68
64652;HTU21D;51062;45.120;37.660;2024-02-15T00:16:34;9.12;73.62
64652;HTU21D;51062;45.120;37.660;2024-02-15T00:19:01;9.11;73.56
64652;HTU21D;51062;45.120;37.660;2024-02-15T00:21:27;9.10;73.64
64652;HTU21D;51062;45.120;37.660;2024-02-15T00:23:53;9.09;73.79
64652;HTU21D;51062;45.120;37.660;2024-02-15T00:26:21;9.09;73.96
64652;HTU21D;51062;45.120;37.660;2024-02-15T00:28:47;9.06;74.00
64652;HTU21D;51062;45.120;37.660;2024-02-15T00:31:14;9.04;73.97
64652;HTU21D;51062;45.120;37.660;2024-02-15T00:33:40;9.03;73.86
64652;HTU21D;51062;45.120;37.660;2024-02-15T00:36:06;9.01;73.84
64652;HTU21D;51062;45.120;37.660;2024-02-15T00:38:32;8.97;73.76
64652;HTU21D;51062;45.120;37.660;2024-02-15T00:40:58;8.94;73.80
64652;HTU21D;51062;45.120;37.660;2024-02-15T00:43:28;8.94;73.92
64652;HTU21D;51062;45.120;37.660;2024-02-15T00:45:54;8.93;73.94
64652;HTU21D;51062;45.120;37.660;2024-02-15T00:48:20;8.89;74.02
64652;HTU21D;51062;45.120;37.660;2024-02-15T00:50:46;8.88;74.04
64652;HTU21D;51062;45.120;37.660;2024-02-15T00:53:12;8.85;73.98
64652;HTU21D;51062;45.120;37.660;2024-02-15T00:55:38;8.82;74.11
64652;HTU21D;51062;45.120;37.660;2024-02-15T00:58:03;8.80;74.12
64652;HTU21D;51062;45.120;37.660;2024-02-15T01:00:29;8.76;74.22
64652;HTU21D;51062;45.120;37.660;2024-02-15T01:02:55;8.74;74.13
64652;HTU21D;51062;45.120;37.660;2024-02-15T01:05:21;8.71;74.32
64652;HTU21D;51062;45.120;37.660;2024-02-15T01:07:49;8.66;74.34
64652;HTU21D;51062;45.120;37.660;2024-02-15T01:10:15;8.62;74.44
64652;HTU21D;51062;45.120;37.660;2024-02-15T01:12:41;8.59;74.51
64652;HTU21D;51062;45.120;37.660;2024-02-15T01:15:07;8.56;74.54
64652;HTU21D;51062;45.120;37.660;2024-02-15T01:17:33;8.49;74.64
64652;HTU21D;51062;45.120;37.660;2024-02-15T01:19:59;8.45;74.79
64652;HTU21D;51062;45.120;37.660;2024-02-15T01:22:25;8.43;74.77
64652;HTU21D;51062;45.120;37.660;2024-02-15T01:24:52;8.39;74.82
64652;HTU21D;51062;45.120;37.660;2024-02-15T01:27:18;8.35;75.06
64652;HTU21D;51062;45.120;37.660;2024-02-15T01:29:44;8.32;74.98
64652;HTU21D;51062;45.120;37.660;2024-02-15T01:32:10;8.28;74.97
64652;HTU21D;51062;45.120;37.660;2024-02-15T01:34:37;8.23;75.09
64652;HTU21D;51062;45.120;37.660;2024-02-15T01:37:03;8.20;75.24
64652;HTU21D;51062;45.120;37.660;2024-02-15T01:39:28;8.16;75.15
64652;HTU21D;51062;45.120;37.660;2024-02-15T01:41:54;8.12;75.25
64652;HTU21D;51062;45.120;37.660;2024-02-15T01:44:22;8.08;75.26
64652;HTU21D;51062;45.120;37.660;2024-02-15T01:46:50;8.03;75.25
64652;HTU21D;51062;45.120;37.660;2024-02-15T01:49:19;7.99;75.19
64652;HTU21D;51062;45.120;37.660;2024-02-15T01:51:46;7.93;75.33
64652;HTU21D;51062;45.120;37.660;2024-02-15T01:54:12;7.90;75.54
64652;HTU21D;51062;45.120;37.660;2024-02-15T01:56:38;7.85;75.77
64652;HTU21D;51062;45.120;37.660;2024-02-15T01:59:04;7.79;75.84
64652;HTU21D;51062;45.120;37.660;2024-02-15T02:01:30;7.76;75.83
64652;HTU21D;51062;45.120;37.660;2024-02-15T02:03:58;7.72;75.85
64652;HTU21D;51062;45.120;37.660;2024-02-15T02:06:24;7.68;75.83
64652;HTU21D;51062;45.120;37.660;2024-02-15T02:08:50;7.63;75.89
64652;HTU21D;51062;45.120;37.660;2024-02-15T02:11:16;7.61;76.19
64652;HTU21D;51062;45.120;37.660;2024-02-15T02:13:42;7.58;76.24
64652;HTU21D;51062;45.120;37.660;2024-02-15T02:18:54;7.49;76.28
64652;HTU21D;51062;45.120;37.660;2024-02-15T02:21:20;7.47;76.28
64652;HTU21D;51062;45.120;37.660;2024-02-15T02:23:48;7.45;76.26
64652;HTU21D;51062;45.120;37.660;2024-02-15T02:26:18;7.41;76.23
64652;HTU21D;51062;45.120;37.660;2024-02-15T02:28:47;7.39;76.21
64652;HTU21D;51062;45.120;37.660;2024-02-15T02:31:12;7.34;76.17
64652;HTU21D;51062;45.120;37.660;2024-02-15T02:33:42;7.34;76.17
64652;HTU21D;51062;45.120;37.660;2024-02-15T02:36:12;7.30;76.18
64652;HTU21D;51062;45.120;37.660;2024-02-15T02:38:38;7.30;76.15
64652;HTU21D;51062;45.120;37.660;2024-02-15T02:41:05;7.29;76.21
64652;HTU21D;51062;45.120;37.660;2024-02-15T02:43:31;7.27;76.28
64652;HTU21D;51062;45.120;37.660;2024-02-15T02:45:57;7.27;76.50
64652;HTU21D;51062;45.120;37.660;2024-02-15T02:48:23;7.29;76.60
64652;HTU21D;51062;45.120;37.660;2024-02-15T02:50:49;7.34;76.69
64652;HTU21D;51062;45.120;37.660;2024-02-15T02:53:15;7.39;76.83
64652;HTU21D;51062;45.120;37.660;2024-02-15T02:55:41;7.44;76.98
64652;HTU21D;51062;45.120;37.660;2024-02-15T02:58:08;7.47;76.82
64652;HTU21D;51062;45.120;37.660;2024-02-15T03:00:34;7.52;76.80
64652;HTU21D;51062;45.120;37.660;2024-02-15T03:03:00;7.55;76.83
64652;HTU21D;51062;45.120;37.660;2024-02-15T03:05:26;7.58;76.86
64652;HTU21D;51062;45.120;37.660;2024-02-15T03:07:52;7.62;76.86
64652;HTU21D;51062;45.120;37.660;2024-02-15T03:10:18;7.64;76.76
64652;HTU21D;51062;45.120;37.660;2024-02-15T03:12:44;7.67;76.63
64652;HTU21D;51062;45.120;37.660;2024-02-15T03:15:13;7.68;76.61
64652;HTU21D;51062;45.120;37.660;2024-02-15T03:17:43;7.69;76.61
64652;HTU21D;51062;45.120;37.660;2024-02-15T03:20:10;7.68;76.69
64652;HTU21D;51062;45.120;37.660;2024-02-15T03:22:54;7.68;76.75
64652;HTU21D;51062;45.120;37.660;2024-02-15T03:25:21;7.67;76.83
64652;HTU21D;51062;45.120;37.660;2024-02-15T03:27:49;7.63;76.88
64652;HTU21D;51062;45.120;37.660;2024-02-15T03:30:17;7.63;76.89
64652;HTU21D;51062;45.120;37.660;2024-02-15T03:32:45;7.63;77.05
64652;HTU21D;51062;45.120;37.660;2024-02-15T03:35:14;7.62;77.13
64652;HTU21D;51062;45.120;37.660;2024-02-15T03:37:40;7.61;77.15
64652;HTU21D;51062;45.120;37.660;2024-02-15T03:40:08;7.59;77.19
64652;HTU21D;51062;45.120;37.660;2024-02-15T03:42:34;7.57;77.15
64652;HTU21D;51062;45.120;37.660;2024-02-15T03:45:06;7.57;77.11
64652;HTU21D;51062;45.120;37.660;2024-02-15T03:47:32;7.57;77.11
64652;HTU21D;51062;45.120;37.660;2024-02-15T03:50:01;7.54;77.19
64652;HTU21D;51062;45.120;37.660;2024-02-15T03:52:28;7.50;77.23
64652;HTU21D;51062;45.120;37.660;2024-02-15T03:54:55;7.47;77.27
64652;HTU21D;51062;45.120;37.660;2024-02-15T03:57:25;7.45;77.30
64652;HTU21D;51062;45.120;37.660;2024-02-15T03:59:52;7.41;77.33
64652;HTU21D;51062;45.120;37.660;2024-02-15T04:02:23;7.37;77.36
64652;HTU21D;51062;45.120;37.660;2024-02-15T04:04:54;7.33;77.32
64652;HTU21D;51062;45.120;37.660;2024-02-15T04:07:24;7.29;77.36
64652;HTU21D;51062;45.120;37.660;2024-02-15T04:09:54;7.26;77.40
64652;HTU21D;51062;45.120;37.660;2024-02-15T04:12:20;7.20;77.40
64652;HTU21D;51062;45.120;37.660;2024-02-15T04:14:47;7.17;77.45
64652;HTU21D;51062;45.120;37.660;2024-02-15T04:17:14;7.13;77.55
64652;HTU21D;51062;45.120;37.660;2024-02-15T04:19:45;7.09;77.59
64652;HTU21D;51062;45.120;37.660;2024-02-15T04:22:12;7.08;77.54
64652;HTU21D;51062;45.120;37.660;2024-02-15T04:24:38;7.07;77.58
64652;HTU21D;51062;45.120;37.660;2024-02-15T04:27:06;7.02;77.55
64652;HTU21D;51062;45.120;37.660;2024-02-15T04:29:46;7.00;77.63
64652;HTU21D;51062;45.120;37.660;2024-02-15T04:32:12;6.97;77.67
64652;HTU21D;51062;45.120;37.660;2024-02-15T04:34:41;6.97;77.72
64652;HTU21D;51062;45.120;37.660;2024-02-15T04:37:07;6.95;77.73
64652;HTU21D;51062;45.120;37.660;2024-02-15T04:39:34;6.93;77.82
64652;HTU21D;51062;45.120;37.660;2024-02-15T04:42:01;6.93;77.84
64652;HTU21D;51062;45.120;37.660;2024-02-15T04:44:27;6.93;77.82
64652;HTU21D;51062;45.120;37.660;2024-02-15T04:46:53;6.89;77.89
64652;HTU21D;51062;45.120;37.660;2024-02-15T04:49:20;6.90;77.89
64652;HTU21D;51062;45.120;37.660;2024-02-15T04:51:46;6.93;77.89
64652;HTU21D;51062;45.120;37.660;2024-02-15T04:54:13;6.95;77.85
64652;HTU21D;51062;45.120;37.660;2024-02-15T04:56:39;6.95;77.85
64652;HTU21D;51062;45.120;37.660;2024-02-15T04:59:06;6.95;77.85
64652;HTU21D;51062;45.120;37.660;2024-02-15T05:01:37;6.93;77.91
64652;HTU21D;51062;45.120;37.660;2024-02-15T05:04:03;6.91;77.91
64652;HTU21D;51062;45.120;37.660;2024-02-15T05:06:33;6.89;78.04
64652;HTU21D;51062;45.120;37.660;2024-02-15T05:08:59;6.88;78.10
64652;HTU21D;51062;45.120;37.660;2024-02-15T05:11:33;6.90;78.13
64652;HTU21D;51062;45.120;37.660;2024-02-15T05:14:02;6.89;78.13
64652;HTU21D;51062;45.120;37.660;2024-02-15T05:16:28;6.89;78.11
64652;HTU21D;51062;45.120;37.660;2024-02-15T05:18:54;6.88;78.10
64652;HTU21D;51062;45.120;37.660;2024-02-15T05:21:22;6.87;78.05
64652;HTU21D;51062;45.120;37.660;2024-02-15T05:23:48;6.86;78.05
64652;HTU21D;51062;45.120;37.660;2024-02-15T05:26:15;6.85;78.03
64652;HTU21D;51062;45.120;37.660;2024-02-15T05:28:49;6.82;78.09
64652;HTU21D;51062;45.120;37.660;2024-02-15T05:31:16;6.80;78.14
64652;HTU21D;51062;45.120;37.660;2024-02-15T05:33:48;6.81;78.14
64652;HTU21D;51062;45.120;37.660;2024-02-15T05:36:15;6.79;78.12
64652;HTU21D;51062;45.120;37.660;2024-02-15T05:38:41;6.76;78.17
64652;HTU21D;51062;45.120;37.660;2024-02-15T05:41:11;6.73;78.16
64652;HTU21D;51062;45.120;37.660;2024-02-15T05:43:39;6.72;78.18
64652;HTU21D;51062;45.120;37.660;2024-02-15T05:46:07;6.70;78.18
64652;HTU21D;51062;45.120;37.660;2024-02-15T05:48:34;6.66;78.21
64652;HTU21D;51062;45.120;37.660;2024-02-15T05:51:01;6.63;78.21
64652;HTU21D;51062;45.120;37.660;2024-02-15T05:53:27;6.59;78.18
64652;HTU21D;51062;45.120;37.660;2024-02-15T05:55:54;6.57;78.17
64652;HTU21D;51062;45.120;37.660;2024-02-15T05:58:20;6.56;78.21
64652;HTU21D;51062;45.120;37.660;2024-02-15T06:00:46;6.53;78.27
64652;HTU21D;51062;45.120;37.660;2024-02-15T06:03:16;6.51;78.34
64652;HTU21D;51062;45.120;37.660;2024-02-15T06:05:42;6.50;78.35
64652;HTU21D;51062;45.120;37.660;2024-02-15T06:08:09;6.50;78.34
64652;HTU21D;51062;45.120;37.660;2024-02-15T06:10:38;6.49;78.36
64652;HTU21D;51062;45.120;37.660;2024-02-15T06:13:04;6.49;78.34
64652;HTU21D;51062;45.120;37.660;2024-02-15T06:15:30;6.49;78.36
64652;HTU21D;51062;45.120;37.660;2024-02-15T06:17:56;6.49;78.30
64652;HTU21D;51062;45.120;37.660;2024-02-15T06:20:23;6.50;78.30
64652;HTU21D;51062;45.120;37.660;2024-02-15T06:22:50;6.50;78.30
64652;HTU21D;51062;45.120;37.660;2024-02-15T06:25:17;6.50;78.30
64652;HTU21D;51062;45.120;37.660;2024-02-15T06:27:46;6.51;78.34
64652;HTU21D;51062;45.120;37.660;2024-02-15T06:30:14;6.52;78.33
64652;HTU21D;51062;45.120;37.660;2024-02-15T06:32:58;6.53;78.27
64652;HTU21D;51062;45.120;37.660;2024-02-15T06:35:43;6.49;78.21
64652;HTU21D;51062;45.120;37.660;2024-02-15T06:38:27;6.49;78.21
64652;HTU21D;51062;45.120;37.660;2024-02-15T06:41:11;6.46;78.22
64652;HTU21D;51062;45.120;37.660;2024-02-15T06:43:37;6.43;78.24
64652;HTU21D;51062;45.120;37.660;2024-02-15T06:46:08;6.41;78.24
64652;HTU21D;51062;45.120;37.660;2024-02-15T06:48:35;6.40;78.21
64652;HTU21D;51062;45.120;37.660;2024-02-15T06:51:02;6.37;78.20
64652;HTU21D;51062;45.120;37.660;2024-02-15T06:53:31;6.34;78.18
64652;HTU21D;51062;45.120;37.660;2024-02-15T06:55:58;6.28;78.20
64652;HTU21D;51062;45.120;37.660;2024-02-15T06:58:24;6.22;78.24
64652;HTU21D;51062;45.120;37.660;2024-02-15T07:00:50;6.19;78.34
64652;HTU21D;51062;45.120;37.660;2024-02-15T07:03:16;6.16;78.43
64652;HTU21D;51062;45.120;37.660;2024-02-15T07:05:45;6.14;78.54
64652;HTU21D;51062;45.120;37.660;2024-02-15T07:08:10;6.13;78.63
64652;HTU21D;51062;45.120;37.660;2024-02-15T07:10:38;6.13;78.63
64652;HTU21D;51062;45.120;37.660;2024-02-15T07:13:04;6.14;78.61
64652;HTU21D;51062;45.120;37.660;2024-02-15T07:15:33;6.13;78.60
64652;HTU21D;51062;45.120;37.660;2024-02-15T07:18:06;6.14;78.62
64652;HTU21D;51062;45.120;37.660;2024-02-15T07:20:32;6.14;78.57
64652;HTU21D;51062;45.120;37.660;2024-02-15T07:22:58;6.12;78.56
64652;HTU21D;51062;45.120;37.660;2024-02-15T07:25:24;6.13;78.58
64652;HTU21D;51062;45.120;37.660;2024-02-15T07:27:50;6.12;78.48
64652;HTU21D;51062;45.120;37.660;2024-02-15T07:30:18;6.10;78.53
64652;HTU21D;51062;45.120;37.660;2024-02-15T07:32:44;6.08;78.59
64652;HTU21D;51062;45.120;37.660;2024-02-15T07:35:10;6.07;78.63
64652;HTU21D;51062;45.120;37.660;2024-02-15T07:37:36;6.07;78.67
64652;HTU21D;51062;45.120;37.660;2024-02-15T07:40:02;6.07;78.69
64652;HTU21D;51062;45.120;37.660;2024-02-15T07:42:33;6.08;78.71
64652;HTU21D;51062;45.120;37.660;2024-02-15T07:45:00;6.10;78.68
64652;HTU21D;51062;45.120;37.660;2024-02-15T07:47:26;6.12;78.64
64652;HTU21D;51062;45.120;37.660;2024-02-15T07:49:52;6.12;78.63
64652;HTU21D;51062;45.120;37.660;2024-02-15T07:52:18;6.10;78.72
64652;HTU21D;51062;45.120;37.660;2024-02-15T07:54:44;6.08;78.70
64652;HTU21D;51062;45.120;37.660;2024-02-15T07:57:10;6.08;78.72
64652;HTU21D;51062;45.120;37.660;2024-02-15T07:59:36;6.06;78.76
64652;HTU21D;51062;45.120;37.660;2024-02-15T08:02:04;6.04;78.82
64652;HTU21D;51062;45.120;37.660;2024-02-15T08:04:31;6.05;78.90
64652;HTU21D;51062;45.120;37.660;2024-02-15T08:06:57;6.07;78.92
64652;HTU21D;51062;45.120;37.660;2024-02-15T08:09:23;6.07;78.89
64652;HTU21D;51062;45.120;37.660;2024-02-15T08:11:49;6.08;78.92
64652;HTU21D;51062;45.120;37.660;2024-02-15T08:14:16;6.09;78.92
64652;HTU21D;51062;45.120;37.660;2024-02-15T08:16:42;6.12;78.91
64652;HTU21D;51062;45.120;37.660;2024-02-15T08:19:08;6.15;78.83
64652;HTU21D;51062;45.120;37.660;2024-02-15T08:21:34;6.16;78.88
64652;HTU21D;51062;45.120;37.660;2024-02-15T08:24:03;6.15;78.88
64652;HTU21D;51062;45.120;37.660;2024-02-15T08:26:32;6.19;78.88
64652;HTU21D;51062;45.120;37.660;2024-02-15T08:28:58;6.23;78.86
64652;HTU21D;51062;45.120;37.660;2024-02-15T08:31:24;6.27;78.83
64652;HTU21D;51062;45.120;37.660;2024-02-15T08:33:50;6.31;78.84
64652;HTU21D;51062;45.120;37.660;2024-02-15T08:36:16;6.39;78.85
64652;HTU21D;51062;45.120;37.660;2024-02-15T08:38:42;6.45;78.77
64652;HTU21D;51062;45.120;37.660;2024-02-15T08:41:08;6.51;78.72
64652;HTU21D;51062;45.120;37.660;2024-02-15T08:43:36;6.54;78.71
64652;HTU21D;51062;45.120;37.660;2024-02-15T08:46:05;6.59;78.72
64652;HTU21D;51062;45.120;37.660;2024-02-15T08:48:31;6.66;78.72
64652;HTU21D;51062;45.120;37.660;2024-02-15T08:50:57;6.72;78.70
64652;HTU21D;51062;45.120;37.660;2024-02-15T08:53:23;6.78;78.70
64652;HTU21D;51062;45.120;37.660;2024-02-15T08:55:50;6.83;78.53
64652;HTU21D;51062;45.120;37.660;2024-02-15T08:58:18;6.87;78.46
64652;HTU21D;51062;45.120;37.660;2024-02-15T09:00:45;6.93;78.43
64652;HTU21D;51062;45.120;37.660;2024-02-15T09:03:11;6.95;78.33
64652;HTU21D;51062;45.120;37.660;2024-02-15T09:05:38;6.96;78.33
64652;HTU21D;51062;45.120;37.660;2024-02-15T09:08:04;7.00;78.37
64652;HTU21D;51062;45.120;37.660;2024-02-15T09:10:30;7.04;78.29
64652;HTU21D;51062;45.120;37.660;2024-02-15T09:12:56;7.08;78.15
64652;HTU21D;51062;45.120;37.660;2024-02-15T09:15:22;7.08;78.11
64652;HTU21D;51062;45.120;37.660;2024-02-15T09:17:48;7.07;78.11
64652;HTU21D;51062;45.120;37.660;2024-02-15T09:20:15;7.08;78.24
64652;HTU21D;51062;45.120;37.660;2024-02-15T09:22:47;7.11;78.14
64652;HTU21D;51062;45.120;37.660;2024-02-15T09:25:13;7.15;78.11
64652;HTU21D;51062;45.120;37.660;2024-02-15T09:27:39;7.17;78.07
64652;HTU21D;51062;45.120;37.660;2024-02-15T09:30:05;7.22;78.01
64652;HTU21D;51062;45.120;37.660;2024-02-15T09:32:40;7.25;77.93
64652;HTU21D;51062;45.120;37.660;2024-02-15T09:35:07;7.25;77.84
64652;HTU21D;51062;45.120;37.660;2024-02-15T09:37:37;7.27;77.81
64652;HTU21D;51062;45.120;37.660;2024-02-15T09:40:07;7.27;77.79
64652;HTU21D;51062;45.120;37.660;2024-02-15T09:42:35;7.32;77.79
64652;HTU21D;51062;45.120;37.660;2024-02-15T09:45:01;7.40;77.82
64652;HTU21D;51062;45.120;37.660;2024-02-15T09:47:33;7.46;77.72
64652;HTU21D;51062;45.120;37.660;2024-02-15T09:50:00;7.50;77.60
64652;HTU21D;51062;45.120;37.660;2024-02-15T09:52:27;7.53;77.46
64652;HTU21D;51062;45.120;37.660;2024-02-15T09:54:57;7.53;77.40
64652;HTU21D;51062;45.120;37.660;2024-02-15T09:57:24;7.54;77.37
64652;HTU21D;51062;45.120;37.660;2024-02-15T09:59:53;7.55;77.39
64652;HTU21D;51062;45.120;37.660;2024-02-15T10:02:19;7.58;77.37
64652;HTU21D;51062;45.120;37.660;2024-02-15T10:04:46;7.59;77.21
64652;HTU21D;51062;45.120;37.660;2024-02-15T10:07:13;7.58;77.19
64652;HTU21D;51062;45.120;37.660;2024-02-15T10:09:39;7.58;77.18
64652;HTU21D;51062;45.120;37.660;2024-02-15T10:12:08;7.59;77.15
64652;HTU21D;51062;45.120;37.660;2024-02-15T10:14:35;7.62;77.14
64652;HTU21D;51062;45.120;37.660;2024-02-15T10:17:07;7.64;77.19
64652;HTU21D;51062;45.120;37.660;2024-02-15T10:19:37;7.69;77.03
64652;HTU21D;51062;45.120;37.660;2024-02-15T10:22:06;7.68;76.95
64652;HTU21D;51062;45.120;37.660;2024-02-15T10:24:33;7.71;77.05
64652;HTU21D;51062;45.120;37.660;2024-02-15T10:27:02;7.75;76.98
64652;HTU21D;51062;45.120;37.660;2024-02-15T10:29:36;7.76;76.84
64652;HTU21D;51062;45.120;37.660;2024-02-15T10:32:03;7.77;76.85
64652;HTU21D;51062;45.120;37.660;2024-02-15T10:34:29;7.81;76.86
64652;HTU21D;51062;45.120;37.660;2024-02-15T10:40:04;7.86;76.86
64652;HTU21D;51062;45.120;37.660;2024-02-15T10:42:34;7.90;76.70
64652;HTU21D;51062;45.120;37.660;2024-02-15T10:45:03;7.90;76.50
64652;HTU21D;51062;45.120;37.660;2024-02-15T10:47:31;7.89;76.54
64652;HTU21D;51062;45.120;37.660;2024-02-15T10:49:57;7.96;76.67
64652;HTU21D;51062;45.120;37.660;2024-02-15T10:52:24;8.01;76.63
64652;HTU21D;51062;45.120;37.660;2024-02-15T10:54:52;8.07;76.55
64652;HTU21D;51062;45.120;37.660;2024-02-15T10:57:20;8.12;76.49
64652;HTU21D;51062;45.120;37.660;2024-02-15T10:59:57;8.17;76.34
64652;HTU21D;51062;45.120;37.660;2024-02-15T11:02:27;8.18;76.13
64652;HTU21D;51062;45.120;37.660;2024-02-15T11:04:55;8.16;75.99
64652;HTU21D;51062;45.120;37.660;2024-02-15T11:07:24;8.13;75.99
64652;HTU21D;51062;45.120;37.660;2024-02-15T11:09:53;8.13;75.99
64652;HTU21D;51062;45.120;37.660;2024-02-15T11:12:22;8.13;76.05
64652;HTU21D;51062;45.120;37.660;2024-02-15T11:14:49;8.13;75.95
64652;HTU21D;51062;45.120;37.660;2024-02-15T11:20:01;8.12;75.95
64652;HTU21D;51062;45.120;37.660;2024-02-15T11:22:26;8.15;75.88
64652;HTU21D;51062;45.120;37.660;2024-02-15T11:24:52;8.13;75.67
64652;HTU21D;51062;45.120;37.660;2024-02-15T11:27:25;8.11;75.73
64652;HTU21D;51062;45.120;37.660;2024-02-15T11:32:34;8.11;75.77
64652;HTU21D;51062;45.120;37.660;2024-02-15T11:35:04;8.11;75.64
64652;HTU21D;51062;45.120;37.660;2024-02-15T11:40:17;7.99;75.42
64652;HTU21D;51062;45.120;37.660;2024-02-15T11:42:44;7.93;75.54
64652;HTU21D;51062;45.120;37.660;2024-02-15T11:45:10;7.92;75.57
64652;HTU21D;51062;45.120;37.660;2024-02-15T11:47:37;7.89;75.57
64652;HTU21D;51062;45.120;37.660;2024-02-15T11:50:04;7.87;75.57
64652;HTU21D;51062;45.120;37.660;2024-02-15T11:52:30;7.87;75.61
64652;HTU21D;51062;45.120;37.660;2024-02-15T11:55:06;7.84;75.50
64652;HTU21D;51062;45.120;37.660;2024-02-15T11:57:36;7.78;75.44
64652;HTU21D;51062;45.120;37.660;2024-02-15T12:00:05;7.72;75.38
64652;HTU21D;51062;45.120;37.660;2024-02-15T12:02:49;7.65;75.52
64652;HTU21D;51062;45.120;37.660;2024-02-15T12:05:34;7.60;75.55
64652;HTU21D;51062;45.120;37.660;2024-02-15T12:08:18;7.58;75.58
64652;HTU21D;51062;45.120;37.660;2024-02-15T12:11:03;7.56;75.57
64652;HTU21D;51062;45.120;37.660;2024-02-15T12:13:50;7.52;75.68
64652;HTU21D;51062;45.120;37.660;2024-02-15T12:16:35;7.54;75.76
64652;HTU21D;51062;45.120;37.660;2024-02-15T12:19:19;7.49;75.62
64652;HTU21D;51062;45.120;37.660;2024-02-15T12:21:47;7.45;75.57
64652;HTU21D;51062;45.120;37.660;2024-02-15T12:24:14;7.41;75.61
64652;HTU21D;51062;45.120;37.660;2024-02-15T12:26:42;7.37;75.62
64652;HTU21D;51062;45.120;37.660;2024-02-15T12:29:08;7.31;75.63
64652;HTU21D;51062;45.120;37.660;2024-02-15T12:31:35;7.27;75.73
64652;HTU21D;51062;45.120;37.660;2024-02-15T12:34:04;7.26;75.79
64652;HTU21D;51062;45.120;37.660;2024-02-15T12:36:33;7.20;75.77
64652;HTU21D;51062;45.120;37.660;2024-02-15T12:39:00;7.18;75.79
64652;HTU21D;51062;45.120;37.660;2024-02-15T12:41:26;7.11;75.89
64652;HTU21D;51062;45.120;37.660;2024-02-15T12:43:52;7.10;75.91
64652;HTU21D;51062;45.120;37.660;2024-02-15T12:46:19;7.10;75.94
64652;HTU21D;51062;45.120;37.660;2024-02-15T12:48:45;7.08;75.90
64652;HTU21D;51062;45.120;37.660;2024-02-15T12:51:15;7.03;75.92
64652;HTU21D;51062;45.120;37.660;2024-02-15T12:53:41;7.01;75.96
64652;HTU21D;51062;45.120;37.660;2024-02-15T12:56:07;6.97;75.98
64652;HTU21D;51062;45.120;37.660;2024-02-15T12:58:35;6.95;76.10
64652;HTU21D;51062;45.120;37.660;2024-02-15T13:01:01;6.91;76.08
64652;HTU21D;51062;45.120;37.660;2024-02-15T13:03:27;6.85;75.99
64652;HTU21D;51062;45.120;37.660;2024-02-15T13:05:54;6.79;76.00
64652;HTU21D;51062;45.120;37.660;2024-02-15T13:08:20;6.72;76.06
64652;HTU21D;51062;45.120;37.660;2024-02-15T13:10:46;6.69;76.09
64652;HTU21D;51062;45.120;37.660;2024-02-15T13:13:12;6.64;76.16
64652;HTU21D;51062;45.120;37.660;2024-02-15T13:15:42;6.56;76.28
64652;HTU21D;51062;45.120;37.660;2024-02-15T13:18:09;6.49;76.41
64652;HTU21D;51062;45.120;37.660;2024-02-15T13:20:36;6.46;76.53
64652;HTU21D;51062;45.120;37.660;2024-02-15T13:23:04;6.41;76.50
64652;HTU21D;51062;45.120;37.660;2024-02-15T13:25:48;6.37;76.48
64652;HTU21D;51062;45.120;37.660;2024-02-15T13:28:14;6.29;76.54
64652;HTU21D;51062;45.120;37.660;2024-02-15T13:30:41;6.25;76.64
64652;HTU21D;51062;45.120;37.660;2024-02-15T13:33:09;6.22;76.70
64652;HTU21D;51062;45.120;37.660;2024-02-15T13:35:35;6.17;76.76
64652;HTU21D;51062;45.120;37.660;2024-02-15T13:38:02;6.14;76.76
64652;HTU21D;51062;45.120;37.660;2024-02-15T13:40:28;6.12;76.82
64652;HTU21D;51062;45.120;37.660;2024-02-15T13:42:56;6.09;76.79
64652;HTU21D;51062;45.120;37.660;2024-02-15T13:48:04;6.04;76.84
64652;HTU21D;51062;45.120;37.660;2024-02-15T13:50:32;6.01;76.89
64652;HTU21D;51062;45.120;37.660;2024-02-15T13:52:58;6.00;76.91
64652;HTU21D;51062;45.120;37.660;2024-02-15T13:55:25;5.97;76.96
64652;HTU21D;51062;45.120;37.660;2024-02-15T13:57:55;5.98;77.03
64652;HTU21D;51062;45.120;37.660;2024-02-15T14:00:22;5.93;77.10
64652;HTU21D;51062;45.120;37.660;2024-02-15T14:02:49;5.92;77.11
64652;HTU21D;51062;45.120;37.660;2024-02-15T14:05:16;5.90;77.17
64652;HTU21D;51062;45.120;37.660;2024-02-15T14:07:48;5.87;77.18
64652;HTU21D;51062;45.120;37.660;2024-02-15T14:10:16;0.00;77.21
64652;HTU21D;51062;45.120;37.660;2024-02-15T14:12:48;5.81;77.24
64652;HTU21D;51062;45.120;37.660;2024-02-15T14:15:17;5.79;77.31
64652;HTU21D;51062;45.120;37.660;2024-02-15T14:17:43;5.74;77.35
64652;HTU21D;51062;45.120;37.660;2024-02-15T14:20:12;5.71;77.40
64652;HTU21D;51062;45.120;37.660;2024-02-15T14:22:46;5.70;77.44
64652;HTU21D;51062;45.120;37.660;2024-02-15T14:25:15;5.68;77.46
64652;HTU21D;51062;45.120;37.660;2024-02-15T14:27:41;5.64;77.47
64652;HTU21D;51062;45.120;37.660;2024-02-15T14:30:08;5.62;77.50
64652;HTU21D;51062;45.120;37.660;2024-02-15T14:32:53;5.57;77.51
64652;HTU21D;51062;45.120;37.660;2024-02-15T14:35:34;5.55;77.63
64652;HTU21D;51062;45.120;37.660;2024-02-15T14:38:03;5.53;77.66
64652;HTU21D;51062;45.120;37.660;2024-02-15T14:40:38;5.52;77.66
64652;HTU21D;51062;45.120;37.660;2024-02-15T14:43:05;5.49;77.70
64652;HTU21D;51062;45.120;37.660;2024-02-15T14:45:34;5.48;77.77
64652;HTU21D;51062;45.120;37.660;2024-02-15T14:48:02;5.43;77.82
64652;HTU21D;51062;45.120;37.660;2024-02-15T14:50:28;5.39;77.88
64652;HTU21D;51062;45.120;37.660;2024-02-15T14:52:54;5.38;77.92
64652;HTU21D;51062;45.120;37.660;2024-02-15T14:55:20;5.37;77.94
64652;HTU21D;51062;45.120;37.660;2024-02-15T14:57:46;5.36;77.95
64652;HTU21D;51062;45.120;37.660;2024-02-15T15:00:15;5.32;77.97
64652;HTU21D;51062;45.120;37.660;2024-02-15T15:02:46;5.30;78.07
64652;HTU21D;51062;45.120;37.660;2024-02-15T15:05:15;5.28;78.08
64652;HTU21D;51062;45.120;37.660;2024-02-15T15:08:00;5.27;78.08
64652;HTU21D;51062;45.120;37.660;2024-02-15T15:10:45;5.28;78.05
64652;HTU21D;51062;45.120;37.660;2024-02-15T15:13:30;5.26;78.04
64652;HTU21D;51062;45.120;37.660;2024-02-15T15:15:57;5.25;78.03
64652;HTU21D;51062;45.120;37.660;2024-02-15T15:18:23;0.00;77.99
64652;HTU21D;51062;45.120;37.660;2024-02-15T15:20:49;5.22;77.95
64652;HTU21D;51062;45.120;37.660;2024-02-15T15:23:15;5.18;77.95
64652;HTU21D;51062;45.120;37.660;2024-02-15T15:25:41;0.00;77.99
64652;HTU21D;51062;45.120;37.660;2024-02-15T15:28:07;5.11;77.96
64652;HTU21D;51062;45.120;37.660;2024-02-15T15:30:33;5.09;77.99
64652;HTU21D;51062;45.120;37.660;2024-02-15T15:33:00;5.09;78.02
64652;HTU21D;51062;45.120;37.660;2024-02-15T15:35:26;5.09;78.00
64652;HTU21D;51062;45.120;37.660;2024-02-15T15:37:53;5.06;78.02